<?xml version="1.0" encoding="UTF-8" standalone="no" ?>
<gpx xmlns="http://www.topografix.com/GPX/1/1" xmlns:xsi="http://www.w3.org/2001/XMLSchema-instance" xsi:schemaLocation="http://www.topografix.com/GPX/1/1 http://www.topografix.com/GPX/1/1/gpx.xsd" version="1.1" creator="VisuGPX - https://www.visugpx.com">
  <metadata>
    <name>Ailefroide et barre des écrins</name>
  </metadata>
  <trk>
    <name><![CDATA[Ecrins J1 23.07.20]]></name>
    <trkseg>
      <trkpt lat="44.9169" lon="6.41546">
        <ele>1943.44</ele>
        <time>2020-07-23T06:35:00Z</time>
      </trkpt>
      <trkpt lat="44.9169" lon="6.41546">
        <ele>1943.44</ele>
        <time>2020-07-23T06:35:01Z</time>
      </trkpt>
      <trkpt lat="44.9169" lon="6.41546">
        <ele>1879.03</ele>
        <time>2020-07-23T06:35:04Z</time>
      </trkpt>
      <trkpt lat="44.9169" lon="6.41546">
        <ele>1879.03</ele>
        <time>2020-07-23T06:35:05Z</time>
      </trkpt>
      <trkpt lat="44.91705" lon="6.41538">
        <ele>1879.03</ele>
        <time>2020-07-23T06:40:33Z</time>
      </trkpt>
      <trkpt lat="44.91808" lon="6.41577">
        <ele>1881.44</ele>
        <time>2020-07-23T06:42:20Z</time>
      </trkpt>
      <trkpt lat="44.91897" lon="6.41474">
        <ele>1888.17</ele>
        <time>2020-07-23T06:44:02Z</time>
      </trkpt>
      <trkpt lat="44.91931" lon="6.41422">
        <ele>1891.53</ele>
        <time>2020-07-23T06:44:45Z</time>
      </trkpt>
      <trkpt lat="44.91969" lon="6.41368">
        <ele>1894.42</ele>
        <time>2020-07-23T06:46:10Z</time>
      </trkpt>
      <trkpt lat="44.92007" lon="6.41308">
        <ele>1899.22</ele>
        <time>2020-07-23T06:47:05Z</time>
      </trkpt>
      <trkpt lat="44.92008" lon="6.41306">
        <ele>1899.22</ele>
        <time>2020-07-23T06:47:07Z</time>
      </trkpt>
      <trkpt lat="44.92053" lon="6.41236">
        <ele>1904.03</ele>
        <time>2020-07-23T06:48:06Z</time>
      </trkpt>
      <trkpt lat="44.92102" lon="6.41163">
        <ele>1908.83</ele>
        <time>2020-07-23T06:49:12Z</time>
      </trkpt>
      <trkpt lat="44.92138" lon="6.411">
        <ele>1912.2</ele>
        <time>2020-07-23T06:50:03Z</time>
      </trkpt>
      <trkpt lat="44.92141" lon="6.41099">
        <ele>1912.2</ele>
        <time>2020-07-23T06:50:06Z</time>
      </trkpt>
      <trkpt lat="44.92194" lon="6.41071">
        <ele>1916.04</ele>
        <time>2020-07-23T06:50:59Z</time>
      </trkpt>
      <trkpt lat="44.92232" lon="6.41022">
        <ele>1922.29</ele>
        <time>2020-07-23T06:52:06Z</time>
      </trkpt>
      <trkpt lat="44.92235" lon="6.40964">
        <ele>1927.1</ele>
        <time>2020-07-23T06:53:01Z</time>
      </trkpt>
      <trkpt lat="44.9223" lon="6.40941">
        <ele>1930.46</ele>
        <time>2020-07-23T06:53:22Z</time>
      </trkpt>
      <trkpt lat="44.92231" lon="6.40936">
        <ele>1930.46</ele>
        <time>2020-07-23T06:53:26Z</time>
      </trkpt>
      <trkpt lat="44.92245" lon="6.40907">
        <ele>1935.75</ele>
        <time>2020-07-23T06:53:56Z</time>
      </trkpt>
      <trkpt lat="44.92251" lon="6.40875">
        <ele>1941.04</ele>
        <time>2020-07-23T06:54:28Z</time>
      </trkpt>
      <trkpt lat="44.92245" lon="6.40852">
        <ele>1945.36</ele>
        <time>2020-07-23T06:54:49Z</time>
      </trkpt>
      <trkpt lat="44.92231" lon="6.40824">
        <ele>1950.17</ele>
        <time>2020-07-23T06:55:23Z</time>
      </trkpt>
      <trkpt lat="44.92228" lon="6.40799">
        <ele>1955.94</ele>
        <time>2020-07-23T06:55:54Z</time>
      </trkpt>
      <trkpt lat="44.92227" lon="6.40783">
        <ele>1959.3</ele>
        <time>2020-07-23T06:56:08Z</time>
      </trkpt>
      <trkpt lat="44.92226" lon="6.4078">
        <ele>1959.3</ele>
        <time>2020-07-23T06:56:11Z</time>
      </trkpt>
      <trkpt lat="44.92224" lon="6.40756">
        <ele>1963.15</ele>
        <time>2020-07-23T06:56:31Z</time>
      </trkpt>
      <trkpt lat="44.92229" lon="6.40725">
        <ele>1968.44</ele>
        <time>2020-07-23T06:57:03Z</time>
      </trkpt>
      <trkpt lat="44.92239" lon="6.40713">
        <ele>1973.72</ele>
        <time>2020-07-23T06:57:30Z</time>
      </trkpt>
      <trkpt lat="44.9224" lon="6.40687">
        <ele>1978.05</ele>
        <time>2020-07-23T06:58:00Z</time>
      </trkpt>
      <trkpt lat="44.92256" lon="6.40704">
        <ele>1981.41</ele>
        <time>2020-07-23T06:58:21Z</time>
      </trkpt>
      <trkpt lat="44.92283" lon="6.40737">
        <ele>1989.1</ele>
        <time>2020-07-23T06:59:07Z</time>
      </trkpt>
      <trkpt lat="44.92307" lon="6.40775">
        <ele>1995.83</ele>
        <time>2020-07-23T06:59:52Z</time>
      </trkpt>
      <trkpt lat="44.92308" lon="6.40777">
        <ele>1995.83</ele>
        <time>2020-07-23T06:59:54Z</time>
      </trkpt>
      <trkpt lat="44.92318" lon="6.408">
        <ele>1999.2</ele>
        <time>2020-07-23T07:00:14Z</time>
      </trkpt>
      <trkpt lat="44.92344" lon="6.40846">
        <ele>2006.41</ele>
        <time>2020-07-23T07:01:01Z</time>
      </trkpt>
      <trkpt lat="44.92352" lon="6.40843">
        <ele>2011.7</ele>
        <time>2020-07-23T07:01:31Z</time>
      </trkpt>
      <trkpt lat="44.92348" lon="6.40822">
        <ele>2015.06</ele>
        <time>2020-07-23T07:01:51Z</time>
      </trkpt>
      <trkpt lat="44.92347" lon="6.40795">
        <ele>2018.91</ele>
        <time>2020-07-23T07:02:15Z</time>
      </trkpt>
      <trkpt lat="44.92347" lon="6.4076">
        <ele>2023.71</ele>
        <time>2020-07-23T07:02:47Z</time>
      </trkpt>
      <trkpt lat="44.92348" lon="6.40724">
        <ele>2029</ele>
        <time>2020-07-23T07:03:21Z</time>
      </trkpt>
      <trkpt lat="44.92355" lon="6.407">
        <ele>2032.84</ele>
        <time>2020-07-23T07:03:45Z</time>
      </trkpt>
      <trkpt lat="44.92368" lon="6.40692">
        <ele>2036.69</ele>
        <time>2020-07-23T07:04:06Z</time>
      </trkpt>
      <trkpt lat="44.92379" lon="6.40714">
        <ele>2041.02</ele>
        <time>2020-07-23T07:05:48Z</time>
      </trkpt>
      <trkpt lat="44.92392" lon="6.40735">
        <ele>2045.34</ele>
        <time>2020-07-23T07:08:55Z</time>
      </trkpt>
      <trkpt lat="44.92395" lon="6.40779">
        <ele>2050.15</ele>
        <time>2020-07-23T07:09:33Z</time>
      </trkpt>
      <trkpt lat="44.92405" lon="6.40809">
        <ele>2054.96</ele>
        <time>2020-07-23T07:10:06Z</time>
      </trkpt>
      <trkpt lat="44.92405" lon="6.40787">
        <ele>2058.32</ele>
        <time>2020-07-23T07:10:26Z</time>
      </trkpt>
      <trkpt lat="44.92409" lon="6.40765">
        <ele>2061.68</ele>
        <time>2020-07-23T07:10:47Z</time>
      </trkpt>
      <trkpt lat="44.92418" lon="6.4073">
        <ele>2065.53</ele>
        <time>2020-07-23T07:11:16Z</time>
      </trkpt>
      <trkpt lat="44.92424" lon="6.4071">
        <ele>2068.89</ele>
        <time>2020-07-23T07:11:37Z</time>
      </trkpt>
      <trkpt lat="44.92429" lon="6.40739">
        <ele>2073.22</ele>
        <time>2020-07-23T07:12:02Z</time>
      </trkpt>
      <trkpt lat="44.92431" lon="6.40737">
        <ele>2073.22</ele>
        <time>2020-07-23T07:12:04Z</time>
      </trkpt>
      <trkpt lat="44.92436" lon="6.40715">
        <ele>2079.47</ele>
        <time>2020-07-23T07:12:34Z</time>
      </trkpt>
      <trkpt lat="44.92439" lon="6.40741">
        <ele>2082.83</ele>
        <time>2020-07-23T07:12:57Z</time>
      </trkpt>
      <trkpt lat="44.92439" lon="6.40765">
        <ele>2086.2</ele>
        <time>2020-07-23T07:13:16Z</time>
      </trkpt>
      <trkpt lat="44.92452" lon="6.40796">
        <ele>2091.49</ele>
        <time>2020-07-23T07:13:50Z</time>
      </trkpt>
      <trkpt lat="44.92453" lon="6.40796">
        <ele>2091.49</ele>
        <time>2020-07-23T07:13:51Z</time>
      </trkpt>
      <trkpt lat="44.92466" lon="6.40806">
        <ele>2094.85</ele>
        <time>2020-07-23T07:14:07Z</time>
      </trkpt>
      <trkpt lat="44.92481" lon="6.40848">
        <ele>2101.58</ele>
        <time>2020-07-23T07:14:51Z</time>
      </trkpt>
      <trkpt lat="44.92487" lon="6.40871">
        <ele>2104.94</ele>
        <time>2020-07-23T07:15:13Z</time>
      </trkpt>
      <trkpt lat="44.92488" lon="6.40873">
        <ele>2104.94</ele>
        <time>2020-07-23T07:15:14Z</time>
      </trkpt>
      <trkpt lat="44.92506" lon="6.40893">
        <ele>2109.75</ele>
        <time>2020-07-23T07:15:43Z</time>
      </trkpt>
      <trkpt lat="44.92508" lon="6.40926">
        <ele>2113.12</ele>
        <time>2020-07-23T07:16:08Z</time>
      </trkpt>
      <trkpt lat="44.92514" lon="6.4095">
        <ele>2116.96</ele>
        <time>2020-07-23T07:16:33Z</time>
      </trkpt>
      <trkpt lat="44.92504" lon="6.40986">
        <ele>2120.81</ele>
        <time>2020-07-23T07:17:03Z</time>
      </trkpt>
      <trkpt lat="44.92497" lon="6.41019">
        <ele>2124.65</ele>
        <time>2020-07-23T07:17:27Z</time>
      </trkpt>
      <trkpt lat="44.92491" lon="6.41049">
        <ele>2128.5</ele>
        <time>2020-07-23T07:17:57Z</time>
      </trkpt>
      <trkpt lat="44.92522" lon="6.41068">
        <ele>2134.26</ele>
        <time>2020-07-23T07:18:37Z</time>
      </trkpt>
      <trkpt lat="44.92522" lon="6.41065">
        <ele>2134.26</ele>
        <time>2020-07-23T07:18:39Z</time>
      </trkpt>
      <trkpt lat="44.9251" lon="6.41045">
        <ele>2138.11</ele>
        <time>2020-07-23T07:19:00Z</time>
      </trkpt>
      <trkpt lat="44.92526" lon="6.41033">
        <ele>2141.47</ele>
        <time>2020-07-23T07:19:19Z</time>
      </trkpt>
      <trkpt lat="44.92532" lon="6.41012">
        <ele>2144.84</ele>
        <time>2020-07-23T07:19:38Z</time>
      </trkpt>
      <trkpt lat="44.92546" lon="6.40981">
        <ele>2150.61</ele>
        <time>2020-07-23T07:20:14Z</time>
      </trkpt>
      <trkpt lat="44.92558" lon="6.40981">
        <ele>2154.93</ele>
        <time>2020-07-23T07:20:39Z</time>
      </trkpt>
      <trkpt lat="44.92554" lon="6.41001">
        <ele>2158.3</ele>
        <time>2020-07-23T07:20:58Z</time>
      </trkpt>
      <trkpt lat="44.92556" lon="6.41004">
        <ele>2158.3</ele>
        <time>2020-07-23T07:21:01Z</time>
      </trkpt>
      <trkpt lat="44.92571" lon="6.41027">
        <ele>2163.58</ele>
        <time>2020-07-23T07:21:29Z</time>
      </trkpt>
      <trkpt lat="44.92579" lon="6.4104">
        <ele>2166.95</ele>
        <time>2020-07-23T07:21:55Z</time>
      </trkpt>
      <trkpt lat="44.92578" lon="6.41005">
        <ele>2171.76</ele>
        <time>2020-07-23T07:22:26Z</time>
      </trkpt>
      <trkpt lat="44.92579" lon="6.41003">
        <ele>2171.76</ele>
        <time>2020-07-23T07:22:28Z</time>
      </trkpt>
      <trkpt lat="44.92587" lon="6.40989">
        <ele>2175.12</ele>
        <time>2020-07-23T07:22:43Z</time>
      </trkpt>
      <trkpt lat="44.92588" lon="6.40985">
        <ele>2175.12</ele>
        <time>2020-07-23T07:22:46Z</time>
      </trkpt>
      <trkpt lat="44.926" lon="6.40938">
        <ele>2181.37</ele>
        <time>2020-07-23T07:23:27Z</time>
      </trkpt>
      <trkpt lat="44.92604" lon="6.40923">
        <ele>2184.73</ele>
        <time>2020-07-23T07:23:43Z</time>
      </trkpt>
      <trkpt lat="44.92612" lon="6.40866">
        <ele>2188.58</ele>
        <time>2020-07-23T07:24:32Z</time>
      </trkpt>
      <trkpt lat="44.9261" lon="6.40852">
        <ele>2191.94</ele>
        <time>2020-07-23T07:24:48Z</time>
      </trkpt>
      <trkpt lat="44.92608" lon="6.40819">
        <ele>2197.23</ele>
        <time>2020-07-23T07:25:19Z</time>
      </trkpt>
      <trkpt lat="44.92617" lon="6.40837">
        <ele>2199.15</ele>
        <time>2020-07-23T07:25:34Z</time>
      </trkpt>
      <trkpt lat="44.92629" lon="6.40861">
        <ele>2204.92</ele>
        <time>2020-07-23T07:26:09Z</time>
      </trkpt>
      <trkpt lat="44.92635" lon="6.40869">
        <ele>2211.17</ele>
        <time>2020-07-23T07:26:40Z</time>
      </trkpt>
      <trkpt lat="44.92642" lon="6.40874">
        <ele>2216.94</ele>
        <time>2020-07-23T07:27:09Z</time>
      </trkpt>
      <trkpt lat="44.92649" lon="6.40881">
        <ele>2222.22</ele>
        <time>2020-07-23T07:27:41Z</time>
      </trkpt>
      <trkpt lat="44.92655" lon="6.40881">
        <ele>2227.03</ele>
        <time>2020-07-23T07:28:10Z</time>
      </trkpt>
      <trkpt lat="44.92658" lon="6.40881">
        <ele>2230.4</ele>
        <time>2020-07-23T07:28:26Z</time>
      </trkpt>
      <trkpt lat="44.92663" lon="6.40896">
        <ele>2236.16</ele>
        <time>2020-07-23T07:28:56Z</time>
      </trkpt>
      <trkpt lat="44.92663" lon="6.40895">
        <ele>2236.16</ele>
        <time>2020-07-23T07:28:58Z</time>
      </trkpt>
      <trkpt lat="44.92671" lon="6.40907">
        <ele>2239.53</ele>
        <time>2020-07-23T07:29:21Z</time>
      </trkpt>
      <trkpt lat="44.92675" lon="6.40913">
        <ele>2242.89</ele>
        <time>2020-07-23T07:29:38Z</time>
      </trkpt>
      <trkpt lat="44.92681" lon="6.40904">
        <ele>2247.7</ele>
        <time>2020-07-23T07:30:05Z</time>
      </trkpt>
      <trkpt lat="44.92689" lon="6.40927">
        <ele>2251.54</ele>
        <time>2020-07-23T07:30:28Z</time>
      </trkpt>
      <trkpt lat="44.92693" lon="6.40937">
        <ele>2252.03</ele>
        <time>2020-07-23T07:30:39Z</time>
      </trkpt>
      <trkpt lat="44.92769" lon="6.40954">
        <ele>2259.24</ele>
        <time>2020-07-23T07:32:07Z</time>
      </trkpt>
      <trkpt lat="44.92782" lon="6.40954">
        <ele>2263.08</ele>
        <time>2020-07-23T07:32:29Z</time>
      </trkpt>
      <trkpt lat="44.92795" lon="6.40948">
        <ele>2266.93</ele>
        <time>2020-07-23T07:32:53Z</time>
      </trkpt>
      <trkpt lat="44.92821" lon="6.40952">
        <ele>2270.29</ele>
        <time>2020-07-23T07:33:23Z</time>
      </trkpt>
      <trkpt lat="44.92836" lon="6.40961">
        <ele>2273.66</ele>
        <time>2020-07-23T07:33:45Z</time>
      </trkpt>
      <trkpt lat="44.92837" lon="6.40961">
        <ele>2273.66</ele>
        <time>2020-07-23T07:33:46Z</time>
      </trkpt>
      <trkpt lat="44.92853" lon="6.40966">
        <ele>2272.21</ele>
        <time>2020-07-23T07:34:05Z</time>
      </trkpt>
      <trkpt lat="44.92913" lon="6.40961">
        <ele>2278.94</ele>
        <time>2020-07-23T07:35:22Z</time>
      </trkpt>
      <trkpt lat="44.92927" lon="6.40957">
        <ele>2282.79</ele>
        <time>2020-07-23T07:35:45Z</time>
      </trkpt>
      <trkpt lat="44.92949" lon="6.40939">
        <ele>2287.11</ele>
        <time>2020-07-23T07:36:15Z</time>
      </trkpt>
      <trkpt lat="44.9295" lon="6.4094">
        <ele>2287.11</ele>
        <time>2020-07-23T07:36:16Z</time>
      </trkpt>
      <trkpt lat="44.92976" lon="6.4095">
        <ele>2283.27</ele>
        <time>2020-07-23T07:36:47Z</time>
      </trkpt>
      <trkpt lat="44.9299" lon="6.40964">
        <ele>2278.94</ele>
        <time>2020-07-23T07:37:09Z</time>
      </trkpt>
      <trkpt lat="44.92993" lon="6.40966">
        <ele>2278.94</ele>
        <time>2020-07-23T07:37:11Z</time>
      </trkpt>
      <trkpt lat="44.93021" lon="6.4097">
        <ele>2282.79</ele>
        <time>2020-07-23T07:37:42Z</time>
      </trkpt>
      <trkpt lat="44.93059" lon="6.4098">
        <ele>2279.42</ele>
        <time>2020-07-23T07:38:29Z</time>
      </trkpt>
      <trkpt lat="44.93063" lon="6.40986">
        <ele>2277.5</ele>
        <time>2020-07-23T07:38:35Z</time>
      </trkpt>
      <trkpt lat="44.93064" lon="6.40987">
        <ele>2277.5</ele>
        <time>2020-07-23T07:38:36Z</time>
      </trkpt>
      <trkpt lat="44.9308" lon="6.41019">
        <ele>2273.17</ele>
        <time>2020-07-23T07:39:10Z</time>
      </trkpt>
      <trkpt lat="44.93091" lon="6.41061">
        <ele>2268.85</ele>
        <time>2020-07-23T07:40:08Z</time>
      </trkpt>
      <trkpt lat="44.93103" lon="6.41053">
        <ele>2268.85</ele>
        <time>2020-07-23T07:40:18Z</time>
      </trkpt>
      <trkpt lat="44.93127" lon="6.41063">
        <ele>2274.14</ele>
        <time>2020-07-23T07:41:16Z</time>
      </trkpt>
      <trkpt lat="44.93138" lon="6.41058">
        <ele>2280.87</ele>
        <time>2020-07-23T07:41:49Z</time>
      </trkpt>
      <trkpt lat="44.93149" lon="6.41046">
        <ele>2285.67</ele>
        <time>2020-07-23T07:42:13Z</time>
      </trkpt>
      <trkpt lat="44.93154" lon="6.41043">
        <ele>2288.56</ele>
        <time>2020-07-23T07:42:24Z</time>
      </trkpt>
      <trkpt lat="44.93155" lon="6.41041">
        <ele>2288.56</ele>
        <time>2020-07-23T07:42:25Z</time>
      </trkpt>
      <trkpt lat="44.93207" lon="6.41025">
        <ele>2293.36</ele>
        <time>2020-07-23T07:43:29Z</time>
      </trkpt>
      <trkpt lat="44.93227" lon="6.41024">
        <ele>2298.65</ele>
        <time>2020-07-23T07:44:00Z</time>
      </trkpt>
      <trkpt lat="44.9324" lon="6.41028">
        <ele>2303.94</ele>
        <time>2020-07-23T07:44:34Z</time>
      </trkpt>
      <trkpt lat="44.93244" lon="6.41034">
        <ele>2307.3</ele>
        <time>2020-07-23T07:44:49Z</time>
      </trkpt>
      <trkpt lat="44.93249" lon="6.41048">
        <ele>2313.07</ele>
        <time>2020-07-23T07:45:20Z</time>
      </trkpt>
      <trkpt lat="44.93248" lon="6.41047">
        <ele>2313.07</ele>
        <time>2020-07-23T07:45:21Z</time>
      </trkpt>
      <trkpt lat="44.93234" lon="6.41052">
        <ele>2316.43</ele>
        <time>2020-07-23T07:46:10Z</time>
      </trkpt>
      <trkpt lat="44.93252" lon="6.41059">
        <ele>2322.68</ele>
        <time>2020-07-23T07:46:40Z</time>
      </trkpt>
      <trkpt lat="44.93242" lon="6.41068">
        <ele>2326.05</ele>
        <time>2020-07-23T07:47:01Z</time>
      </trkpt>
      <trkpt lat="44.9324" lon="6.41073">
        <ele>2329.41</ele>
        <time>2020-07-23T07:47:12Z</time>
      </trkpt>
      <trkpt lat="44.93234" lon="6.41088">
        <ele>2332.78</ele>
        <time>2020-07-23T07:47:32Z</time>
      </trkpt>
      <trkpt lat="44.93232" lon="6.41095">
        <ele>2336.62</ele>
        <time>2020-07-23T07:47:56Z</time>
      </trkpt>
      <trkpt lat="44.93208" lon="6.41095">
        <ele>2342.87</ele>
        <time>2020-07-23T07:49:44Z</time>
      </trkpt>
      <trkpt lat="44.93202" lon="6.41104">
        <ele>2346.23</ele>
        <time>2020-07-23T07:50:16Z</time>
      </trkpt>
      <trkpt lat="44.93215" lon="6.4114">
        <ele>2351.04</ele>
        <time>2020-07-23T07:51:16Z</time>
      </trkpt>
      <trkpt lat="44.93195" lon="6.41162">
        <ele>2355.37</ele>
        <time>2020-07-23T07:51:47Z</time>
      </trkpt>
      <trkpt lat="44.93187" lon="6.41182">
        <ele>2359.69</ele>
        <time>2020-07-23T07:52:16Z</time>
      </trkpt>
      <trkpt lat="44.93184" lon="6.41196">
        <ele>2361.62</ele>
        <time>2020-07-23T07:52:30Z</time>
      </trkpt>
      <trkpt lat="44.93184" lon="6.41197">
        <ele>2361.62</ele>
        <time>2020-07-23T07:52:31Z</time>
      </trkpt>
      <trkpt lat="44.9319" lon="6.41208">
        <ele>2365.46</ele>
        <time>2020-07-23T07:52:58Z</time>
      </trkpt>
      <trkpt lat="44.93208" lon="6.41204">
        <ele>2370.27</ele>
        <time>2020-07-23T07:53:28Z</time>
      </trkpt>
      <trkpt lat="44.93213" lon="6.41218">
        <ele>2376.04</ele>
        <time>2020-07-23T07:54:02Z</time>
      </trkpt>
      <trkpt lat="44.93219" lon="6.41215">
        <ele>2379.4</ele>
        <time>2020-07-23T07:54:17Z</time>
      </trkpt>
      <trkpt lat="44.93238" lon="6.41206">
        <ele>2384.21</ele>
        <time>2020-07-23T07:54:50Z</time>
      </trkpt>
      <trkpt lat="44.93247" lon="6.41208">
        <ele>2387.57</ele>
        <time>2020-07-23T07:55:05Z</time>
      </trkpt>
      <trkpt lat="44.93262" lon="6.41208">
        <ele>2392.86</ele>
        <time>2020-07-23T07:55:36Z</time>
      </trkpt>
      <trkpt lat="44.93263" lon="6.41223">
        <ele>2398.15</ele>
        <time>2020-07-23T07:56:07Z</time>
      </trkpt>
      <trkpt lat="44.93253" lon="6.41236">
        <ele>2403.43</ele>
        <time>2020-07-23T07:56:38Z</time>
      </trkpt>
      <trkpt lat="44.93269" lon="6.41241">
        <ele>2408.72</ele>
        <time>2020-07-23T07:57:10Z</time>
      </trkpt>
      <trkpt lat="44.93258" lon="6.41256">
        <ele>2412.09</ele>
        <time>2020-07-23T07:57:33Z</time>
      </trkpt>
      <trkpt lat="44.9325" lon="6.41265">
        <ele>2416.89</ele>
        <time>2020-07-23T07:58:05Z</time>
      </trkpt>
      <trkpt lat="44.93268" lon="6.41269">
        <ele>2421.7</ele>
        <time>2020-07-23T07:58:38Z</time>
      </trkpt>
      <trkpt lat="44.9327" lon="6.41268">
        <ele>2421.7</ele>
        <time>2020-07-23T07:58:40Z</time>
      </trkpt>
      <trkpt lat="44.93292" lon="6.41272">
        <ele>2425.54</ele>
        <time>2020-07-23T07:59:10Z</time>
      </trkpt>
      <trkpt lat="44.93317" lon="6.41262">
        <ele>2430.83</ele>
        <time>2020-07-23T07:59:45Z</time>
      </trkpt>
      <trkpt lat="44.93338" lon="6.41265">
        <ele>2434.68</ele>
        <time>2020-07-23T08:00:18Z</time>
      </trkpt>
      <trkpt lat="44.93347" lon="6.41264">
        <ele>2434.2</ele>
        <time>2020-07-23T08:01:03Z</time>
      </trkpt>
      <trkpt lat="44.93359" lon="6.41268">
        <ele>2434.2</ele>
        <time>2020-07-23T08:01:16Z</time>
      </trkpt>
      <trkpt lat="44.93428" lon="6.41248">
        <ele>2437.56</ele>
        <time>2020-07-23T08:02:11Z</time>
      </trkpt>
      <trkpt lat="44.93429" lon="6.41247">
        <ele>2437.56</ele>
        <time>2020-07-23T08:02:12Z</time>
      </trkpt>
      <trkpt lat="44.93448" lon="6.41253">
        <ele>2438.04</ele>
        <time>2020-07-23T08:02:25Z</time>
      </trkpt>
      <trkpt lat="44.9347" lon="6.41271">
        <ele>2439.48</ele>
        <time>2020-07-23T08:02:46Z</time>
      </trkpt>
      <trkpt lat="44.93563" lon="6.41243">
        <ele>2442.85</ele>
        <time>2020-07-23T08:04:18Z</time>
      </trkpt>
      <trkpt lat="44.93565" lon="6.41241">
        <ele>2442.85</ele>
        <time>2020-07-23T08:04:20Z</time>
      </trkpt>
      <trkpt lat="44.9363" lon="6.41187">
        <ele>2449.58</ele>
        <time>2020-07-23T08:05:46Z</time>
      </trkpt>
      <trkpt lat="44.93652" lon="6.41189">
        <ele>2452.94</ele>
        <time>2020-07-23T08:06:10Z</time>
      </trkpt>
      <trkpt lat="44.93662" lon="6.41212">
        <ele>2456.79</ele>
        <time>2020-07-23T08:06:34Z</time>
      </trkpt>
      <trkpt lat="44.93668" lon="6.41222">
        <ele>2461.59</ele>
        <time>2020-07-23T08:07:05Z</time>
      </trkpt>
      <trkpt lat="44.93675" lon="6.41211">
        <ele>2467.36</ele>
        <time>2020-07-23T08:07:36Z</time>
      </trkpt>
      <trkpt lat="44.93685" lon="6.41222">
        <ele>2472.17</ele>
        <time>2020-07-23T08:08:07Z</time>
      </trkpt>
      <trkpt lat="44.93686" lon="6.41207">
        <ele>2475.53</ele>
        <time>2020-07-23T08:08:23Z</time>
      </trkpt>
      <trkpt lat="44.9369" lon="6.41181">
        <ele>2481.3</ele>
        <time>2020-07-23T08:08:49Z</time>
      </trkpt>
      <trkpt lat="44.93689" lon="6.41162">
        <ele>2485.15</ele>
        <time>2020-07-23T08:09:19Z</time>
      </trkpt>
      <trkpt lat="44.93692" lon="6.41147">
        <ele>2489.47</ele>
        <time>2020-07-23T08:09:36Z</time>
      </trkpt>
      <trkpt lat="44.93688" lon="6.41139">
        <ele>2492.84</ele>
        <time>2020-07-23T08:09:51Z</time>
      </trkpt>
      <trkpt lat="44.93703" lon="6.41099">
        <ele>2496.2</ele>
        <time>2020-07-23T08:10:27Z</time>
      </trkpt>
      <trkpt lat="44.93712" lon="6.41094">
        <ele>2499.57</ele>
        <time>2020-07-23T08:10:45Z</time>
      </trkpt>
      <trkpt lat="44.93733" lon="6.41095">
        <ele>2501.49</ele>
        <time>2020-07-23T08:11:06Z</time>
      </trkpt>
      <trkpt lat="44.93734" lon="6.41094">
        <ele>2501.49</ele>
        <time>2020-07-23T08:11:07Z</time>
      </trkpt>
      <trkpt lat="44.93745" lon="6.41093">
        <ele>2505.33</ele>
        <time>2020-07-23T08:11:25Z</time>
      </trkpt>
      <trkpt lat="44.93754" lon="6.41099">
        <ele>2510.62</ele>
        <time>2020-07-23T08:11:52Z</time>
      </trkpt>
      <trkpt lat="44.93767" lon="6.41094">
        <ele>2515.43</ele>
        <time>2020-07-23T08:12:14Z</time>
      </trkpt>
      <trkpt lat="44.93783" lon="6.41093">
        <ele>2519.75</ele>
        <time>2020-07-23T08:12:38Z</time>
      </trkpt>
      <trkpt lat="44.93792" lon="6.41097">
        <ele>2522.16</ele>
        <time>2020-07-23T08:12:48Z</time>
      </trkpt>
      <trkpt lat="44.93793" lon="6.41096">
        <ele>2522.16</ele>
        <time>2020-07-23T08:12:49Z</time>
      </trkpt>
      <trkpt lat="44.93803" lon="6.41094">
        <ele>2525.52</ele>
        <time>2020-07-23T08:13:03Z</time>
      </trkpt>
      <trkpt lat="44.93801" lon="6.41115">
        <ele>2531.29</ele>
        <time>2020-07-23T08:13:32Z</time>
      </trkpt>
      <trkpt lat="44.93791" lon="6.41128">
        <ele>2537.06</ele>
        <time>2020-07-23T08:13:55Z</time>
      </trkpt>
      <trkpt lat="44.93777" lon="6.41138">
        <ele>2541.38</ele>
        <time>2020-07-23T08:14:21Z</time>
      </trkpt>
      <trkpt lat="44.93774" lon="6.41141">
        <ele>2542.34</ele>
        <time>2020-07-23T08:14:26Z</time>
      </trkpt>
      <trkpt lat="44.93748" lon="6.41148">
        <ele>2552.44</ele>
        <time>2020-07-23T08:47:15Z</time>
      </trkpt>
      <trkpt lat="44.9375" lon="6.41153">
        <ele>2551</ele>
        <time>2020-07-23T09:00:19Z</time>
      </trkpt>
      <trkpt lat="44.93785" lon="6.41143">
        <ele>2556.76</ele>
        <time>2020-07-23T09:24:59Z</time>
      </trkpt>
      <trkpt lat="44.93806" lon="6.41146">
        <ele>2561.57</ele>
        <time>2020-07-23T09:25:32Z</time>
      </trkpt>
      <trkpt lat="44.93811" lon="6.41149">
        <ele>2564.93</ele>
        <time>2020-07-23T09:25:48Z</time>
      </trkpt>
      <trkpt lat="44.93827" lon="6.41149">
        <ele>2570.7</ele>
        <time>2020-07-23T09:26:25Z</time>
      </trkpt>
      <trkpt lat="44.93836" lon="6.41147">
        <ele>2572.63</ele>
        <time>2020-07-23T09:26:36Z</time>
      </trkpt>
      <trkpt lat="44.93837" lon="6.41146">
        <ele>2572.63</ele>
        <time>2020-07-23T09:26:37Z</time>
      </trkpt>
      <trkpt lat="44.9386" lon="6.4114">
        <ele>2570.22</ele>
        <time>2020-07-23T09:27:04Z</time>
      </trkpt>
      <trkpt lat="44.93866" lon="6.41106">
        <ele>2573.59</ele>
        <time>2020-07-23T09:27:39Z</time>
      </trkpt>
      <trkpt lat="44.93878" lon="6.41104">
        <ele>2577.91</ele>
        <time>2020-07-23T09:28:08Z</time>
      </trkpt>
      <trkpt lat="44.93878" lon="6.41096">
        <ele>2581.28</ele>
        <time>2020-07-23T09:28:24Z</time>
      </trkpt>
      <trkpt lat="44.93891" lon="6.41076">
        <ele>2586.08</ele>
        <time>2020-07-23T09:28:59Z</time>
      </trkpt>
      <trkpt lat="44.93897" lon="6.41086">
        <ele>2591.85</ele>
        <time>2020-07-23T09:29:32Z</time>
      </trkpt>
      <trkpt lat="44.93907" lon="6.41092">
        <ele>2597.62</ele>
        <time>2020-07-23T09:30:00Z</time>
      </trkpt>
      <trkpt lat="44.93912" lon="6.41092">
        <ele>2600.98</ele>
        <time>2020-07-23T09:30:16Z</time>
      </trkpt>
      <trkpt lat="44.93917" lon="6.4109">
        <ele>2604.35</ele>
        <time>2020-07-23T09:30:31Z</time>
      </trkpt>
      <trkpt lat="44.93927" lon="6.41092">
        <ele>2610.12</ele>
        <time>2020-07-23T09:31:00Z</time>
      </trkpt>
      <trkpt lat="44.93937" lon="6.41096">
        <ele>2614.92</ele>
        <time>2020-07-23T09:31:33Z</time>
      </trkpt>
      <trkpt lat="44.93946" lon="6.41097">
        <ele>2620.21</ele>
        <time>2020-07-23T09:32:05Z</time>
      </trkpt>
      <trkpt lat="44.93958" lon="6.41098">
        <ele>2625.98</ele>
        <time>2020-07-23T09:32:37Z</time>
      </trkpt>
      <trkpt lat="44.93973" lon="6.41092">
        <ele>2632.23</ele>
        <time>2020-07-23T09:33:12Z</time>
      </trkpt>
      <trkpt lat="44.93978" lon="6.41089">
        <ele>2635.59</ele>
        <time>2020-07-23T09:33:33Z</time>
      </trkpt>
      <trkpt lat="44.93994" lon="6.41089">
        <ele>2642.32</ele>
        <time>2020-07-23T09:34:10Z</time>
      </trkpt>
      <trkpt lat="44.94008" lon="6.41074">
        <ele>2647.61</ele>
        <time>2020-07-23T09:34:46Z</time>
      </trkpt>
      <trkpt lat="44.94029" lon="6.41058">
        <ele>2651.93</ele>
        <time>2020-07-23T09:35:23Z</time>
      </trkpt>
      <trkpt lat="44.94042" lon="6.41043">
        <ele>2656.74</ele>
        <time>2020-07-23T09:35:58Z</time>
      </trkpt>
      <trkpt lat="44.94046" lon="6.41037">
        <ele>2660.11</ele>
        <time>2020-07-23T09:36:14Z</time>
      </trkpt>
      <trkpt lat="44.94063" lon="6.41009">
        <ele>2664.43</ele>
        <time>2020-07-23T09:36:49Z</time>
      </trkpt>
      <trkpt lat="44.94082" lon="6.40993">
        <ele>2669.24</ele>
        <time>2020-07-23T09:37:21Z</time>
      </trkpt>
      <trkpt lat="44.94101" lon="6.40977">
        <ele>2675.01</ele>
        <time>2020-07-23T09:37:55Z</time>
      </trkpt>
      <trkpt lat="44.94112" lon="6.40961">
        <ele>2680.29</ele>
        <time>2020-07-23T09:38:25Z</time>
      </trkpt>
      <trkpt lat="44.94119" lon="6.40952">
        <ele>2684.62</ele>
        <time>2020-07-23T09:38:46Z</time>
      </trkpt>
      <trkpt lat="44.94129" lon="6.40928">
        <ele>2690.87</ele>
        <time>2020-07-23T09:39:20Z</time>
      </trkpt>
      <trkpt lat="44.94145" lon="6.40905">
        <ele>2696.64</ele>
        <time>2020-07-23T09:39:51Z</time>
      </trkpt>
      <trkpt lat="44.94164" lon="6.40896">
        <ele>2700.48</ele>
        <time>2020-07-23T09:40:22Z</time>
      </trkpt>
      <trkpt lat="44.94177" lon="6.40887">
        <ele>2703.85</ele>
        <time>2020-07-23T09:40:41Z</time>
      </trkpt>
      <trkpt lat="44.94193" lon="6.40878">
        <ele>2709.61</ele>
        <time>2020-07-23T09:41:09Z</time>
      </trkpt>
      <trkpt lat="44.94202" lon="6.40871">
        <ele>2712.98</ele>
        <time>2020-07-23T09:41:27Z</time>
      </trkpt>
      <trkpt lat="44.94211" lon="6.40862">
        <ele>2717.3</ele>
        <time>2020-07-23T09:41:45Z</time>
      </trkpt>
      <trkpt lat="44.94236" lon="6.40848">
        <ele>2722.11</ele>
        <time>2020-07-23T09:42:21Z</time>
      </trkpt>
      <trkpt lat="44.94245" lon="6.40839">
        <ele>2725.48</ele>
        <time>2020-07-23T09:42:37Z</time>
      </trkpt>
      <trkpt lat="44.94261" lon="6.4083">
        <ele>2729.32</ele>
        <time>2020-07-23T09:43:03Z</time>
      </trkpt>
      <trkpt lat="44.94277" lon="6.40823">
        <ele>2734.61</ele>
        <time>2020-07-23T09:43:37Z</time>
      </trkpt>
      <trkpt lat="44.94285" lon="6.40824">
        <ele>2737.97</ele>
        <time>2020-07-23T09:43:58Z</time>
      </trkpt>
      <trkpt lat="44.9429" lon="6.40819">
        <ele>2741.34</ele>
        <time>2020-07-23T09:44:14Z</time>
      </trkpt>
      <trkpt lat="44.94303" lon="6.40827">
        <ele>2747.59</ele>
        <time>2020-07-23T09:44:58Z</time>
      </trkpt>
      <trkpt lat="44.94305" lon="6.40832">
        <ele>2750.95</ele>
        <time>2020-07-23T09:45:15Z</time>
      </trkpt>
      <trkpt lat="44.94312" lon="6.40843">
        <ele>2755.76</ele>
        <time>2020-07-23T09:45:50Z</time>
      </trkpt>
      <trkpt lat="44.94319" lon="6.40849">
        <ele>2761.04</ele>
        <time>2020-07-23T09:46:23Z</time>
      </trkpt>
      <trkpt lat="44.94322" lon="6.40854">
        <ele>2766.33</ele>
        <time>2020-07-23T09:46:58Z</time>
      </trkpt>
      <trkpt lat="44.94326" lon="6.40857">
        <ele>2769.7</ele>
        <time>2020-07-23T09:47:22Z</time>
      </trkpt>
      <trkpt lat="44.94336" lon="6.40857">
        <ele>2774.98</ele>
        <time>2020-07-23T09:47:53Z</time>
      </trkpt>
      <trkpt lat="44.94346" lon="6.40855">
        <ele>2780.27</ele>
        <time>2020-07-23T09:48:26Z</time>
      </trkpt>
      <trkpt lat="44.94354" lon="6.4086">
        <ele>2784.6</ele>
        <time>2020-07-23T09:48:57Z</time>
      </trkpt>
      <trkpt lat="44.94358" lon="6.40866">
        <ele>2799.5</ele>
        <time>2020-07-23T09:53:37Z</time>
      </trkpt>
      <trkpt lat="44.94378" lon="6.40864">
        <ele>2820.65</ele>
        <time>2020-07-23T10:12:43Z</time>
      </trkpt>
      <trkpt lat="44.94389" lon="6.40871">
        <ele>2833.62</ele>
        <time>2020-07-23T10:16:08Z</time>
      </trkpt>
      <trkpt lat="44.94395" lon="6.40879">
        <ele>2840.35</ele>
        <time>2020-07-23T10:20:20Z</time>
      </trkpt>
      <trkpt lat="44.94398" lon="6.4088">
        <ele>2844.68</ele>
        <time>2020-07-23T10:21:59Z</time>
      </trkpt>
      <trkpt lat="44.94399" lon="6.40879">
        <ele>2844.68</ele>
        <time>2020-07-23T10:22:19Z</time>
      </trkpt>
      <trkpt lat="44.94402" lon="6.40881">
        <ele>2854.29</ele>
        <time>2020-07-23T10:38:31Z</time>
      </trkpt>
      <trkpt lat="44.94406" lon="6.40881">
        <ele>2859.1</ele>
        <time>2020-07-23T10:39:07Z</time>
      </trkpt>
      <trkpt lat="44.9441" lon="6.4088">
        <ele>2863.9</ele>
        <time>2020-07-23T10:40:49Z</time>
      </trkpt>
      <trkpt lat="44.94412" lon="6.40879">
        <ele>2863.9</ele>
        <time>2020-07-23T10:41:17Z</time>
      </trkpt>
      <trkpt lat="44.94416" lon="6.40878">
        <ele>2882.17</ele>
        <time>2020-07-23T11:05:23Z</time>
      </trkpt>
      <trkpt lat="44.9442" lon="6.40875">
        <ele>2904.76</ele>
        <time>2020-07-23T11:43:48Z</time>
      </trkpt>
      <trkpt lat="44.94422" lon="6.40869">
        <ele>2908.13</ele>
        <time>2020-07-23T11:44:50Z</time>
      </trkpt>
      <trkpt lat="44.94422" lon="6.40866">
        <ele>2908.13</ele>
        <time>2020-07-23T11:49:00Z</time>
      </trkpt>
      <trkpt lat="44.94424" lon="6.40865">
        <ele>2910.53</ele>
        <time>2020-07-23T12:01:00Z</time>
      </trkpt>
      <trkpt lat="44.94427" lon="6.40867">
        <ele>2915.34</ele>
        <time>2020-07-23T12:03:49Z</time>
      </trkpt>
      <trkpt lat="44.94431" lon="6.40867">
        <ele>2923.99</ele>
        <time>2020-07-23T12:07:06Z</time>
      </trkpt>
      <trkpt lat="44.94444" lon="6.40866">
        <ele>2928.31</ele>
        <time>2020-07-23T12:08:56Z</time>
      </trkpt>
      <trkpt lat="44.94442" lon="6.40867">
        <ele>2931.68</ele>
        <time>2020-07-23T12:25:44Z</time>
      </trkpt>
      <trkpt lat="44.94447" lon="6.40866">
        <ele>2936.48</ele>
        <time>2020-07-23T12:29:53Z</time>
      </trkpt>
      <trkpt lat="44.94449" lon="6.40869">
        <ele>2940.81</ele>
        <time>2020-07-23T12:31:00Z</time>
      </trkpt>
      <trkpt lat="44.94453" lon="6.40875">
        <ele>2945.14</ele>
        <time>2020-07-23T12:31:33Z</time>
      </trkpt>
      <trkpt lat="44.94461" lon="6.40872">
        <ele>2950.9</ele>
        <time>2020-07-23T12:32:43Z</time>
      </trkpt>
      <trkpt lat="44.94466" lon="6.40871">
        <ele>2959.56</ele>
        <time>2020-07-23T12:38:47Z</time>
      </trkpt>
      <trkpt lat="44.9447" lon="6.40876">
        <ele>2967.25</ele>
        <time>2020-07-23T12:42:28Z</time>
      </trkpt>
      <trkpt lat="44.94471" lon="6.40878">
        <ele>2971.09</ele>
        <time>2020-07-23T12:43:23Z</time>
      </trkpt>
      <trkpt lat="44.94477" lon="6.40883">
        <ele>2975.42</ele>
        <time>2020-07-23T12:55:42Z</time>
      </trkpt>
      <trkpt lat="44.94492" lon="6.40889">
        <ele>2964.84</ele>
        <time>2020-07-23T13:12:55Z</time>
      </trkpt>
      <trkpt lat="44.94489" lon="6.40909">
        <ele>2945.14</ele>
        <time>2020-07-23T13:21:36Z</time>
      </trkpt>
      <trkpt lat="44.94481" lon="6.40917">
        <ele>2938.41</ele>
        <time>2020-07-23T13:22:03Z</time>
      </trkpt>
      <trkpt lat="44.94476" lon="6.40921">
        <ele>2935.04</ele>
        <time>2020-07-23T13:22:18Z</time>
      </trkpt>
      <trkpt lat="44.9447" lon="6.40926">
        <ele>2931.2</ele>
        <time>2020-07-23T13:22:32Z</time>
      </trkpt>
      <trkpt lat="44.94471" lon="6.40937">
        <ele>2926.87</ele>
        <time>2020-07-23T13:23:10Z</time>
      </trkpt>
      <trkpt lat="44.94473" lon="6.40952">
        <ele>2922.54</ele>
        <time>2020-07-23T13:23:45Z</time>
      </trkpt>
      <trkpt lat="44.94473" lon="6.40964">
        <ele>2917.26</ele>
        <time>2020-07-23T13:24:20Z</time>
      </trkpt>
      <trkpt lat="44.94474" lon="6.40987">
        <ele>2911.49</ele>
        <time>2020-07-23T13:24:51Z</time>
      </trkpt>
      <trkpt lat="44.94478" lon="6.41003">
        <ele>2913.41</ele>
        <time>2020-07-23T13:25:10Z</time>
      </trkpt>
      <trkpt lat="44.94478" lon="6.41039">
        <ele>2907.16</ele>
        <time>2020-07-23T13:26:00Z</time>
      </trkpt>
      <trkpt lat="44.94478" lon="6.41039">
        <ele>2907.16</ele>
        <time>2020-07-23T13:26:01Z</time>
      </trkpt>
      <trkpt lat="44.94473" lon="6.41054">
        <ele>2899.47</ele>
        <time>2020-07-23T13:26:52Z</time>
      </trkpt>
      <trkpt lat="44.94469" lon="6.41066">
        <ele>2893.71</ele>
        <time>2020-07-23T13:27:27Z</time>
      </trkpt>
      <trkpt lat="44.94458" lon="6.41074">
        <ele>2886.5</ele>
        <time>2020-07-23T13:27:55Z</time>
      </trkpt>
      <trkpt lat="44.94453" lon="6.41077">
        <ele>2883.13</ele>
        <time>2020-07-23T13:28:10Z</time>
      </trkpt>
      <trkpt lat="44.94436" lon="6.41085">
        <ele>2869.67</ele>
        <time>2020-07-23T13:29:14Z</time>
      </trkpt>
      <trkpt lat="44.94425" lon="6.41085">
        <ele>2862.46</ele>
        <time>2020-07-23T13:29:35Z</time>
      </trkpt>
      <trkpt lat="44.94413" lon="6.41088">
        <ele>2857.18</ele>
        <time>2020-07-23T13:29:47Z</time>
      </trkpt>
      <trkpt lat="44.94408" lon="6.41089">
        <ele>2853.81</ele>
        <time>2020-07-23T13:29:55Z</time>
      </trkpt>
      <trkpt lat="44.94393" lon="6.41088">
        <ele>2844.2</ele>
        <time>2020-07-23T13:30:25Z</time>
      </trkpt>
      <trkpt lat="44.94383" lon="6.41097">
        <ele>2839.87</ele>
        <time>2020-07-23T13:30:57Z</time>
      </trkpt>
      <trkpt lat="44.94374" lon="6.41101">
        <ele>2833.14</ele>
        <time>2020-07-23T13:31:29Z</time>
      </trkpt>
      <trkpt lat="44.94367" lon="6.41099">
        <ele>2827.37</ele>
        <time>2020-07-23T13:31:49Z</time>
      </trkpt>
      <trkpt lat="44.94353" lon="6.41091">
        <ele>2821.13</ele>
        <time>2020-07-23T13:32:09Z</time>
      </trkpt>
      <trkpt lat="44.94341" lon="6.41088">
        <ele>2813.92</ele>
        <time>2020-07-23T13:32:35Z</time>
      </trkpt>
      <trkpt lat="44.94331" lon="6.41084">
        <ele>2806.71</ele>
        <time>2020-07-23T13:32:54Z</time>
      </trkpt>
      <trkpt lat="44.94313" lon="6.41077">
        <ele>2799.98</ele>
        <time>2020-07-23T13:33:16Z</time>
      </trkpt>
      <trkpt lat="44.94293" lon="6.41064">
        <ele>2789.88</ele>
        <time>2020-07-23T13:33:52Z</time>
      </trkpt>
      <trkpt lat="44.9428" lon="6.41053">
        <ele>2782.67</ele>
        <time>2020-07-23T13:34:22Z</time>
      </trkpt>
      <trkpt lat="44.9426" lon="6.4104">
        <ele>2773.06</ele>
        <time>2020-07-23T13:34:54Z</time>
      </trkpt>
      <trkpt lat="44.94239" lon="6.41024">
        <ele>2763.93</ele>
        <time>2020-07-23T13:35:24Z</time>
      </trkpt>
      <trkpt lat="44.94231" lon="6.41011">
        <ele>2758.64</ele>
        <time>2020-07-23T13:35:42Z</time>
      </trkpt>
      <trkpt lat="44.94224" lon="6.40987">
        <ele>2752.39</ele>
        <time>2020-07-23T13:36:06Z</time>
      </trkpt>
      <trkpt lat="44.94224" lon="6.40974">
        <ele>2748.07</ele>
        <time>2020-07-23T13:36:27Z</time>
      </trkpt>
      <trkpt lat="44.9422" lon="6.40959">
        <ele>2743.26</ele>
        <time>2020-07-23T13:36:41Z</time>
      </trkpt>
      <trkpt lat="44.94214" lon="6.40926">
        <ele>2737.97</ele>
        <time>2020-07-23T13:37:14Z</time>
      </trkpt>
      <trkpt lat="44.94212" lon="6.40901">
        <ele>2734.13</ele>
        <time>2020-07-23T13:37:34Z</time>
      </trkpt>
      <trkpt lat="44.942" lon="6.40894">
        <ele>2730.76</ele>
        <time>2020-07-23T13:37:48Z</time>
      </trkpt>
      <trkpt lat="44.94181" lon="6.40896">
        <ele>2725.48</ele>
        <time>2020-07-23T13:38:13Z</time>
      </trkpt>
      <trkpt lat="44.94158" lon="6.40902">
        <ele>2720.67</ele>
        <time>2020-07-23T13:38:49Z</time>
      </trkpt>
      <trkpt lat="44.94145" lon="6.40916">
        <ele>2716.34</ele>
        <time>2020-07-23T13:39:09Z</time>
      </trkpt>
      <trkpt lat="44.94127" lon="6.40938">
        <ele>2710.09</ele>
        <time>2020-07-23T13:39:34Z</time>
      </trkpt>
      <trkpt lat="44.94119" lon="6.40952">
        <ele>2706.73</ele>
        <time>2020-07-23T13:39:46Z</time>
      </trkpt>
      <trkpt lat="44.94112" lon="6.40964">
        <ele>2702.4</ele>
        <time>2020-07-23T13:40:02Z</time>
      </trkpt>
      <trkpt lat="44.94103" lon="6.40978">
        <ele>2697.6</ele>
        <time>2020-07-23T13:40:17Z</time>
      </trkpt>
      <trkpt lat="44.94096" lon="6.40985">
        <ele>2694.23</ele>
        <time>2020-07-23T13:40:27Z</time>
      </trkpt>
      <trkpt lat="44.94088" lon="6.40993">
        <ele>2691.83</ele>
        <time>2020-07-23T13:40:35Z</time>
      </trkpt>
      <trkpt lat="44.94075" lon="6.41004">
        <ele>2688.46</ele>
        <time>2020-07-23T13:40:48Z</time>
      </trkpt>
      <trkpt lat="44.94074" lon="6.41005">
        <ele>2688.46</ele>
        <time>2020-07-23T13:40:49Z</time>
      </trkpt>
      <trkpt lat="44.94061" lon="6.41018">
        <ele>2684.62</ele>
        <time>2020-07-23T13:41:03Z</time>
      </trkpt>
      <trkpt lat="44.9405" lon="6.41035">
        <ele>2682.7</ele>
        <time>2020-07-23T13:41:16Z</time>
      </trkpt>
      <trkpt lat="44.94039" lon="6.41046">
        <ele>2676.93</ele>
        <time>2020-07-23T13:41:36Z</time>
      </trkpt>
      <trkpt lat="44.94015" lon="6.41074">
        <ele>2671.64</ele>
        <time>2020-07-23T13:42:03Z</time>
      </trkpt>
      <trkpt lat="44.93994" lon="6.41089">
        <ele>2662.99</ele>
        <time>2020-07-23T13:42:28Z</time>
      </trkpt>
      <trkpt lat="44.93985" lon="6.41091">
        <ele>2659.14</ele>
        <time>2020-07-23T13:42:43Z</time>
      </trkpt>
      <trkpt lat="44.93973" lon="6.41092">
        <ele>2654.34</ele>
        <time>2020-07-23T13:43:01Z</time>
      </trkpt>
      <trkpt lat="44.93966" lon="6.41092">
        <ele>2650.97</ele>
        <time>2020-07-23T13:43:10Z</time>
      </trkpt>
      <trkpt lat="44.93954" lon="6.41097">
        <ele>2645.69</ele>
        <time>2020-07-23T13:43:31Z</time>
      </trkpt>
      <trkpt lat="44.93947" lon="6.41099">
        <ele>2641.36</ele>
        <time>2020-07-23T13:43:50Z</time>
      </trkpt>
      <trkpt lat="44.93943" lon="6.41095">
        <ele>2637.99</ele>
        <time>2020-07-23T13:44:01Z</time>
      </trkpt>
      <trkpt lat="44.93936" lon="6.41101">
        <ele>2634.63</ele>
        <time>2020-07-23T13:44:16Z</time>
      </trkpt>
      <trkpt lat="44.93928" lon="6.41091">
        <ele>2629.82</ele>
        <time>2020-07-23T13:44:37Z</time>
      </trkpt>
      <trkpt lat="44.93916" lon="6.41094">
        <ele>2624.06</ele>
        <time>2020-07-23T13:45:08Z</time>
      </trkpt>
      <trkpt lat="44.93911" lon="6.41092">
        <ele>2620.21</ele>
        <time>2020-07-23T13:45:16Z</time>
      </trkpt>
      <trkpt lat="44.93911" lon="6.41092">
        <ele>2620.21</ele>
        <time>2020-07-23T13:45:17Z</time>
      </trkpt>
      <trkpt lat="44.93903" lon="6.4109">
        <ele>2615.88</ele>
        <time>2020-07-23T13:45:31Z</time>
      </trkpt>
      <trkpt lat="44.939" lon="6.41087">
        <ele>2612.52</ele>
        <time>2020-07-23T13:45:39Z</time>
      </trkpt>
      <trkpt lat="44.93893" lon="6.41087">
        <ele>2608.67</ele>
        <time>2020-07-23T13:45:48Z</time>
      </trkpt>
      <trkpt lat="44.9388" lon="6.41088">
        <ele>2602.91</ele>
        <time>2020-07-23T13:46:11Z</time>
      </trkpt>
      <trkpt lat="44.93876" lon="6.41099">
        <ele>2599.54</ele>
        <time>2020-07-23T13:46:23Z</time>
      </trkpt>
      <trkpt lat="44.93874" lon="6.41107">
        <ele>2596.18</ele>
        <time>2020-07-23T13:46:38Z</time>
      </trkpt>
      <trkpt lat="44.9387" lon="6.41116">
        <ele>2591.85</ele>
        <time>2020-07-23T13:46:47Z</time>
      </trkpt>
      <trkpt lat="44.93857" lon="6.4114">
        <ele>2591.85</ele>
        <time>2020-07-23T13:47:16Z</time>
      </trkpt>
      <trkpt lat="44.93822" lon="6.41136">
        <ele>2586.08</ele>
        <time>2020-07-23T13:47:52Z</time>
      </trkpt>
      <trkpt lat="44.93813" lon="6.41144">
        <ele>2582.24</ele>
        <time>2020-07-23T13:48:04Z</time>
      </trkpt>
      <trkpt lat="44.93803" lon="6.41144">
        <ele>2577.91</ele>
        <time>2020-07-23T13:48:21Z</time>
      </trkpt>
      <trkpt lat="44.93785" lon="6.41149">
        <ele>2572.63</ele>
        <time>2020-07-23T13:48:41Z</time>
      </trkpt>
      <trkpt lat="44.93739" lon="6.41156">
        <ele>2569.26</ele>
        <time>2020-07-23T13:52:53Z</time>
      </trkpt>
      <trkpt lat="44.93745" lon="6.41156">
        <ele>2565.9</ele>
        <time>2020-07-23T13:58:06Z</time>
      </trkpt>
      <trkpt lat="44.93741" lon="6.41155">
        <ele>2560.61</ele>
        <time>2020-07-23T14:20:01Z</time>
      </trkpt>
      <trkpt lat="44.93741" lon="6.41155">
        <ele>2557.24</ele>
        <time>2020-07-23T14:41:29Z</time>
      </trkpt>
      <trkpt lat="44.93744" lon="6.41154">
        <ele>2553.4</ele>
        <time>2020-07-23T15:04:21Z</time>
      </trkpt>
      <trkpt lat="44.93764" lon="6.41151">
        <ele>2558.69</ele>
        <time>2020-07-23T15:10:59Z</time>
      </trkpt>
    </trkseg>
  </trk>
</gpx>